sensor_id;sensor_type;location;lat;lon;timestamp;P1;durP1;ratioP1;P2;durP2;ratioP2
44189;SDS011;29856;52.144;5.430;2022-09-17T00:01:00;23.88;;;3.53;;
44189;SDS011;29856;52.144;5.430;2022-09-17T00:03:26;18.20;;;2.85;;
44189;SDS011;29856;52.144;5.430;2022-09-17T00:08:48;23.80;;;4.30;;
44189;SDS011;29856;52.144;5.430;2022-09-17T00:11:17;15.70;;;3.20;;
44189;SDS011;29856;52.144;5.430;2022-09-17T00:13:45;14.88;;;2.55;;
44189;SDS011;29856;52.144;5.430;2022-09-17T00:16:11;18.27;;;3.05;;
44189;SDS011;29856;52.144;5.430;2022-09-17T00:18:37;15.35;;;2.83;;
44189;SDS011;29856;52.144;5.430;2022-09-17T00:21:03;15.48;;;2.72;;
44189;SDS011;29856;52.144;5.430;2022-09-17T00:23:29;13.88;;;2.20;;
44189;SDS011;29856;52.144;5.430;2022-09-17T00:25:54;16.80;;;3.25;;
44189;SDS011;29856;52.144;5.430;2022-09-17T00:28:20;15.82;;;3.40;;
44189;SDS011;29856;52.144;5.430;2022-09-17T00:30:45;21.70;;;3.25;;
44189;SDS011;29856;52.144;5.430;2022-09-17T00:33:14;20.27;;;2.70;;
44189;SDS011;29856;52.144;5.430;2022-09-17T00:35:41;14.63;;;2.47;;
44189;SDS011;29856;52.144;5.430;2022-09-17T00:38:07;15.50;;;2.97;;
44189;SDS011;29856;52.144;5.430;2022-09-17T00:40:33;13.63;;;3.25;;
44189;SDS011;29856;52.144;5.430;2022-09-17T00:42:59;17.45;;;2.88;;
44189;SDS011;29856;52.144;5.430;2022-09-17T00:45:25;16.10;;;2.70;;
44189;SDS011;29856;52.144;5.430;2022-09-17T00:47:56;14.52;;;3.25;;
44189;SDS011;29856;52.144;5.430;2022-09-17T00:50:34;15.68;;;3.03;;
44189;SDS011;29856;52.144;5.430;2022-09-17T00:53:04;16.17;;;3.42;;
44189;SDS011;29856;52.144;5.430;2022-09-17T00:55:32;17.08;;;2.63;;
44189;SDS011;29856;52.144;5.430;2022-09-17T00:58:02;19.95;;;2.65;;
44189;SDS011;29856;52.144;5.430;2022-09-17T01:00:30;16.00;;;2.72;;
44189;SDS011;29856;52.144;5.430;2022-09-17T01:02:56;17.67;;;2.78;;
44189;SDS011;29856;52.144;5.430;2022-09-17T01:08:31;16.70;;;2.30;;
44189;SDS011;29856;52.144;5.430;2022-09-17T01:11:14;13.93;;;2.38;;
44189;SDS011;29856;52.144;5.430;2022-09-17T01:17:07;13.18;;;2.42;;
44189;SDS011;29856;52.144;5.430;2022-09-17T01:22:32;15.93;;;2.05;;
44189;SDS011;29856;52.144;5.430;2022-09-17T01:25:20;10.57;;;2.10;;
44189;SDS011;29856;52.144;5.430;2022-09-17T01:28:13;15.43;;;2.17;;
44189;SDS011;29856;52.144;5.430;2022-09-17T01:36:31;11.25;;;2.33;;
44189;SDS011;29856;52.144;5.430;2022-09-17T01:39:09;10.45;;;2.53;;
44189;SDS011;29856;52.144;5.430;2022-09-17T01:49:42;8.55;;;1.77;;
44189;SDS011;29856;52.144;5.430;2022-09-17T01:52:09;9.57;;;1.77;;
44189;SDS011;29856;52.144;5.430;2022-09-17T01:54:40;10.60;;;2.08;;
44189;SDS011;29856;52.144;5.430;2022-09-17T01:57:24;9.23;;;1.27;;
44189;SDS011;29856;52.144;5.430;2022-09-17T01:59:57;9.13;;;1.40;;
44189;SDS011;29856;52.144;5.430;2022-09-17T02:02:35;5.40;;;1.17;;
44189;SDS011;29856;52.144;5.430;2022-09-17T02:05:05;10.38;;;2.05;;
44189;SDS011;29856;52.144;5.430;2022-09-17T02:07:37;11.32;;;1.77;;
44189;SDS011;29856;52.144;5.430;2022-09-17T02:10:10;10.88;;;1.65;;
44189;SDS011;29856;52.144;5.430;2022-09-17T02:12:40;9.25;;;1.40;;
44189;SDS011;29856;52.144;5.430;2022-09-17T02:15:11;8.20;;;1.40;;
44189;SDS011;29856;52.144;5.430;2022-09-17T02:17:51;6.57;;;1.23;;
44189;SDS011;29856;52.144;5.430;2022-09-17T02:20:23;7.40;;;1.30;;
44189;SDS011;29856;52.144;5.430;2022-09-17T02:22:56;12.23;;;1.50;;
44189;SDS011;29856;52.144;5.430;2022-09-17T02:30:43;6.80;;;1.25;;
44189;SDS011;29856;52.144;5.430;2022-09-17T02:33:10;11.75;;;1.67;;
44189;SDS011;29856;52.144;5.430;2022-09-17T02:35:38;9.05;;;1.42;;
44189;SDS011;29856;52.144;5.430;2022-09-17T02:38:03;10.68;;;1.55;;
44189;SDS011;29856;52.144;5.430;2022-09-17T02:40:30;9.43;;;2.50;;
44189;SDS011;29856;52.144;5.430;2022-09-17T02:46:27;10.70;;;1.55;;
44189;SDS011;29856;52.144;5.430;2022-09-17T02:49:09;6.70;;;1.30;;
44189;SDS011;29856;52.144;5.430;2022-09-17T02:55:17;9.95;;;1.75;;
44189;SDS011;29856;52.144;5.430;2022-09-17T02:57:54;13.05;;;2.35;;
44189;SDS011;29856;52.144;5.430;2022-09-17T03:03:07;12.90;;;2.53;;
44189;SDS011;29856;52.144;5.430;2022-09-17T03:05:40;10.57;;;1.80;;
44189;SDS011;29856;52.144;5.430;2022-09-17T03:08:07;14.18;;;2.10;;
44189;SDS011;29856;52.144;5.430;2022-09-17T03:10:36;12.32;;;2.03;;
44189;SDS011;29856;52.144;5.430;2022-09-17T03:13:01;12.02;;;1.40;;
44189;SDS011;29856;52.144;5.430;2022-09-17T03:15:26;10.88;;;1.90;;
44189;SDS011;29856;52.144;5.430;2022-09-17T03:17:52;12.13;;;2.03;;
44189;SDS011;29856;52.144;5.430;2022-09-17T03:20:17;13.70;;;2.42;;
44189;SDS011;29856;52.144;5.430;2022-09-17T03:22:44;13.52;;;2.50;;
44189;SDS011;29856;52.144;5.430;2022-09-17T03:25:09;13.90;;;2.47;;
44189;SDS011;29856;52.144;5.430;2022-09-17T03:27:35;10.13;;;2.30;;
44189;SDS011;29856;52.144;5.430;2022-09-17T03:30:00;15.88;;;2.20;;
44189;SDS011;29856;52.144;5.430;2022-09-17T03:32:26;16.83;;;3.40;;
44189;SDS011;29856;52.144;5.430;2022-09-17T03:34:51;11.88;;;2.95;;
44189;SDS011;29856;52.144;5.430;2022-09-17T03:37:17;13.43;;;2.70;;
44189;SDS011;29856;52.144;5.430;2022-09-17T03:39:42;14.90;;;2.35;;
44189;SDS011;29856;52.144;5.430;2022-09-17T03:42:08;18.58;;;2.95;;
44189;SDS011;29856;52.144;5.430;2022-09-17T03:44:33;12.70;;;2.42;;
44189;SDS011;29856;52.144;5.430;2022-09-17T03:46:58;12.10;;;2.15;;
44189;SDS011;29856;52.144;5.430;2022-09-17T03:49:24;13.90;;;1.88;;
44189;SDS011;29856;52.144;5.430;2022-09-17T03:51:49;14.07;;;2.92;;
44189;SDS011;29856;52.144;5.430;2022-09-17T03:54:15;9.93;;;2.05;;
44189;SDS011;29856;52.144;5.430;2022-09-17T03:56:40;14.57;;;2.05;;
44189;SDS011;29856;52.144;5.430;2022-09-17T03:59:06;10.70;;;1.77;;
44189;SDS011;29856;52.144;5.430;2022-09-17T04:01:31;16.92;;;3.15;;
44189;SDS011;29856;52.144;5.430;2022-09-17T04:03:57;14.02;;;1.85;;
44189;SDS011;29856;52.144;5.430;2022-09-17T04:06:22;15.45;;;2.83;;
44189;SDS011;29856;52.144;5.430;2022-09-17T04:08:48;15.75;;;2.28;;
44189;SDS011;29856;52.144;5.430;2022-09-17T04:11:13;12.73;;;2.55;;
44189;SDS011;29856;52.144;5.430;2022-09-17T04:13:39;11.68;;;3.33;;
44189;SDS011;29856;52.144;5.430;2022-09-17T04:16:04;13.48;;;2.42;;
44189;SDS011;29856;52.144;5.430;2022-09-17T04:18:30;11.45;;;1.98;;
44189;SDS011;29856;52.144;5.430;2022-09-17T04:20:55;9.00;;;1.80;;
44189;SDS011;29856;52.144;5.430;2022-09-17T04:23:21;10.85;;;2.15;;
44189;SDS011;29856;52.144;5.430;2022-09-17T04:25:46;12.68;;;2.05;;
44189;SDS011;29856;52.144;5.430;2022-09-17T04:28:12;12.73;;;2.47;;
44189;SDS011;29856;52.144;5.430;2022-09-17T04:30:37;15.48;;;2.20;;
44189;SDS011;29856;52.144;5.430;2022-09-17T04:33:05;14.35;;;2.03;;
44189;SDS011;29856;52.144;5.430;2022-09-17T04:35:31;12.43;;;2.10;;
44189;SDS011;29856;52.144;5.430;2022-09-17T04:37:57;14.50;;;2.58;;
44189;SDS011;29856;52.144;5.430;2022-09-17T04:40:23;15.30;;;2.03;;
44189;SDS011;29856;52.144;5.430;2022-09-17T04:42:53;9.70;;;1.77;;
44189;SDS011;29856;52.144;5.430;2022-09-17T04:45:19;7.70;;;1.70;;
44189;SDS011;29856;52.144;5.430;2022-09-17T04:47:45;10.98;;;2.10;;
44189;SDS011;29856;52.144;5.430;2022-09-17T04:50:10;9.68;;;2.22;;
44189;SDS011;29856;52.144;5.430;2022-09-17T04:52:36;12.02;;;1.95;;
44189;SDS011;29856;52.144;5.430;2022-09-17T04:55:01;9.35;;;1.60;;
44189;SDS011;29856;52.144;5.430;2022-09-17T04:57:27;8.82;;;1.98;;
44189;SDS011;29856;52.144;5.430;2022-09-17T04:59:53;12.25;;;1.70;;
44189;SDS011;29856;52.144;5.430;2022-09-17T05:02:18;9.70;;;1.50;;
44189;SDS011;29856;52.144;5.430;2022-09-17T05:04:43;6.60;;;1.80;;
44189;SDS011;29856;52.144;5.430;2022-09-17T05:07:09;8.38;;;1.60;;
44189;SDS011;29856;52.144;5.430;2022-09-17T05:09:34;11.52;;;1.80;;
44189;SDS011;29856;52.144;5.430;2022-09-17T05:12:00;13.20;;;2.15;;
44189;SDS011;29856;52.144;5.430;2022-09-17T05:14:25;7.13;;;1.83;;
44189;SDS011;29856;52.144;5.430;2022-09-17T05:16:51;10.60;;;2.00;;
44189;SDS011;29856;52.144;5.430;2022-09-17T05:19:16;4.95;;;1.48;;
44189;SDS011;29856;52.144;5.430;2022-09-17T05:21:42;8.07;;;1.30;;
44189;SDS011;29856;52.144;5.430;2022-09-17T05:24:07;10.75;;;1.83;;
44189;SDS011;29856;52.144;5.430;2022-09-17T05:26:33;8.00;;;1.75;;
44189;SDS011;29856;52.144;5.430;2022-09-17T05:28:58;6.72;;;1.38;;
44189;SDS011;29856;52.144;5.430;2022-09-17T05:31:23;9.80;;;1.52;;
44189;SDS011;29856;52.144;5.430;2022-09-17T05:33:49;6.63;;;1.55;;
44189;SDS011;29856;52.144;5.430;2022-09-17T05:36:14;6.75;;;1.63;;
44189;SDS011;29856;52.144;5.430;2022-09-17T05:38:40;7.88;;;1.60;;
44189;SDS011;29856;52.144;5.430;2022-09-17T05:41:05;6.70;;;1.10;;
44189;SDS011;29856;52.144;5.430;2022-09-17T05:43:31;9.93;;;1.40;;
44189;SDS011;29856;52.144;5.430;2022-09-17T05:46:01;11.73;;;1.50;;
44189;SDS011;29856;52.144;5.430;2022-09-17T05:48:27;8.25;;;1.63;;
44189;SDS011;29856;52.144;5.430;2022-09-17T05:50:53;8.48;;;2.33;;
44189;SDS011;29856;52.144;5.430;2022-09-17T05:53:19;7.93;;;1.60;;
44189;SDS011;29856;52.144;5.430;2022-09-17T05:55:45;9.82;;;1.50;;
44189;SDS011;29856;52.144;5.430;2022-09-17T05:58:11;5.50;;;1.20;;
44189;SDS011;29856;52.144;5.430;2022-09-17T06:00:41;6.32;;;2.08;;
44189;SDS011;29856;52.144;5.430;2022-09-17T06:03:07;5.43;;;1.20;;
44189;SDS011;29856;52.144;5.430;2022-09-17T06:05:35;12.07;;;1.35;;
44189;SDS011;29856;52.144;5.430;2022-09-17T06:08:00;9.65;;;1.40;;
44189;SDS011;29856;52.144;5.430;2022-09-17T06:10:26;7.38;;;1.48;;
44189;SDS011;29856;52.144;5.430;2022-09-17T06:12:55;7.95;;;1.52;;
44189;SDS011;29856;52.144;5.430;2022-09-17T06:15:21;8.18;;;1.30;;
44189;SDS011;29856;52.144;5.430;2022-09-17T06:17:46;8.32;;;2.13;;
44189;SDS011;29856;52.144;5.430;2022-09-17T06:20:12;8.35;;;1.23;;
44189;SDS011;29856;52.144;5.430;2022-09-17T06:22:37;9.07;;;1.33;;
44189;SDS011;29856;52.144;5.430;2022-09-17T06:25:03;9.13;;;1.30;;
44189;SDS011;29856;52.144;5.430;2022-09-17T06:27:29;4.65;;;1.30;;
44189;SDS011;29856;52.144;5.430;2022-09-17T06:29:55;8.95;;;1.65;;
44189;SDS011;29856;52.144;5.430;2022-09-17T06:32:21;6.63;;;1.23;;
44189;SDS011;29856;52.144;5.430;2022-09-17T06:34:46;10.10;;;1.33;;
44189;SDS011;29856;52.144;5.430;2022-09-17T06:37:11;9.05;;;1.50;;
44189;SDS011;29856;52.144;5.430;2022-09-17T06:39:37;12.30;;;2.17;;
44189;SDS011;29856;52.144;5.430;2022-09-17T06:42:02;4.78;;;1.20;;
44189;SDS011;29856;52.144;5.430;2022-09-17T06:44:28;9.30;;;1.42;;
44189;SDS011;29856;52.144;5.430;2022-09-17T06:46:53;14.02;;;2.00;;
44189;SDS011;29856;52.144;5.430;2022-09-17T06:49:19;7.50;;;1.90;;
44189;SDS011;29856;52.144;5.430;2022-09-17T06:51:44;8.85;;;1.48;;
44189;SDS011;29856;52.144;5.430;2022-09-17T06:54:10;12.10;;;2.05;;
44189;SDS011;29856;52.144;5.430;2022-09-17T06:56:35;7.93;;;1.90;;
44189;SDS011;29856;52.144;5.430;2022-09-17T06:59:01;6.70;;;1.38;;
44189;SDS011;29856;52.144;5.430;2022-09-17T07:01:26;8.75;;;1.65;;
44189;SDS011;29856;52.144;5.430;2022-09-17T07:03:52;21.38;;;4.55;;
44189;SDS011;29856;52.144;5.430;2022-09-17T07:06:18;7.10;;;1.65;;
44189;SDS011;29856;52.144;5.430;2022-09-17T07:08:43;9.57;;;2.08;;
44189;SDS011;29856;52.144;5.430;2022-09-17T07:11:08;5.07;;;1.13;;
44189;SDS011;29856;52.144;5.430;2022-09-17T07:13:34;9.00;;;1.33;;
44189;SDS011;29856;52.144;5.430;2022-09-17T07:16:00;9.45;;;1.40;;
44189;SDS011;29856;52.144;5.430;2022-09-17T07:18:28;11.15;;;1.50;;
44189;SDS011;29856;52.144;5.430;2022-09-17T07:20:57;4.78;;;1.52;;
44189;SDS011;29856;52.144;5.430;2022-09-17T07:23:28;11.70;;;1.77;;
44189;SDS011;29856;52.144;5.430;2022-09-17T07:25:56;10.35;;;2.17;;
44189;SDS011;29856;52.144;5.430;2022-09-17T07:28:23;8.88;;;1.33;;
44189;SDS011;29856;52.144;5.430;2022-09-17T07:30:50;7.53;;;1.75;;
44189;SDS011;29856;52.144;5.430;2022-09-17T07:33:17;8.52;;;1.48;;
44189;SDS011;29856;52.144;5.430;2022-09-17T07:38:19;6.80;;;1.55;;
44189;SDS011;29856;52.144;5.430;2022-09-17T07:40:51;9.82;;;1.50;;
44189;SDS011;29856;52.144;5.430;2022-09-17T07:43:25;9.40;;;1.48;;
44189;SDS011;29856;52.144;5.430;2022-09-17T07:45:51;5.03;;;1.20;;
44189;SDS011;29856;52.144;5.430;2022-09-17T07:48:18;4.72;;;1.48;;
44189;SDS011;29856;52.144;5.430;2022-09-17T07:50:45;9.00;;;1.95;;
44189;SDS011;29856;52.144;5.430;2022-09-17T07:53:10;6.97;;;1.42;;
44189;SDS011;29856;52.144;5.430;2022-09-17T07:55:36;8.73;;;1.55;;
44189;SDS011;29856;52.144;5.430;2022-09-17T07:58:01;5.95;;;1.42;;
44189;SDS011;29856;52.144;5.430;2022-09-17T08:00:27;5.82;;;1.65;;
44189;SDS011;29856;52.144;5.430;2022-09-17T08:02:53;10.82;;;1.70;;
44189;SDS011;29856;52.144;5.430;2022-09-17T08:05:19;7.18;;;1.38;;
44189;SDS011;29856;52.144;5.430;2022-09-17T08:07:49;11.57;;;1.92;;
44189;SDS011;29856;52.144;5.430;2022-09-17T08:10:18;9.25;;;1.50;;
44189;SDS011;29856;52.144;5.430;2022-09-17T08:12:49;6.10;;;1.30;;
44189;SDS011;29856;52.144;5.430;2022-09-17T08:15:18;3.90;;;1.15;;
44189;SDS011;29856;52.144;5.430;2022-09-17T08:17:44;7.43;;;1.38;;
44189;SDS011;29856;52.144;5.430;2022-09-17T08:20:10;5.35;;;1.23;;
44189;SDS011;29856;52.144;5.430;2022-09-17T08:22:36;6.40;;;1.25;;
44189;SDS011;29856;52.144;5.430;2022-09-17T08:25:02;7.00;;;1.08;;
44189;SDS011;29856;52.144;5.430;2022-09-17T08:27:29;9.90;;;1.30;;
44189;SDS011;29856;52.144;5.430;2022-09-17T08:29:54;3.65;;;0.73;;
44189;SDS011;29856;52.144;5.430;2022-09-17T08:32:20;5.22;;;1.23;;
44189;SDS011;29856;52.144;5.430;2022-09-17T08:34:45;6.13;;;1.15;;
44189;SDS011;29856;52.144;5.430;2022-09-17T08:37:11;12.25;;;1.02;;
44189;SDS011;29856;52.144;5.430;2022-09-17T08:39:36;7.10;;;1.30;;
44189;SDS011;29856;52.144;5.430;2022-09-17T08:44:48;4.70;;;0.90;;
44189;SDS011;29856;52.144;5.430;2022-09-17T08:47:15;5.78;;;1.13;;
44189;SDS011;29856;52.144;5.430;2022-09-17T08:55:14;7.30;;;1.25;;
44189;SDS011;29856;52.144;5.430;2022-09-17T09:04:03;8.75;;;1.30;;
44189;SDS011;29856;52.144;5.430;2022-09-17T09:09:35;3.60;;;0.85;;
44189;SDS011;29856;52.144;5.430;2022-09-17T09:12:07;6.80;;;1.00;;
44189;SDS011;29856;52.144;5.430;2022-09-17T09:14:39;8.70;;;1.05;;
44189;SDS011;29856;52.144;5.430;2022-09-17T09:17:10;5.00;;;1.13;;
44189;SDS011;29856;52.144;5.430;2022-09-17T09:19:40;7.57;;;1.05;;
44189;SDS011;29856;52.144;5.430;2022-09-17T09:27:44;10.52;;;1.20;;
44189;SDS011;29856;52.144;5.430;2022-09-17T09:30:16;5.20;;;0.93;;
44189;SDS011;29856;52.144;5.430;2022-09-17T09:35:55;6.60;;;1.40;;
44189;SDS011;29856;52.144;5.430;2022-09-17T09:38:34;7.38;;;1.40;;
44189;SDS011;29856;52.144;5.430;2022-09-17T09:41:18;8.80;;;1.75;;
44189;SDS011;29856;52.144;5.430;2022-09-17T09:44:00;10.68;;;2.33;;
44189;SDS011;29856;52.144;5.430;2022-09-17T09:54:34;6.10;;;2.38;;
44189;SDS011;29856;52.144;5.430;2022-09-17T09:57:09;7.78;;;1.42;;
44189;SDS011;29856;52.144;5.430;2022-09-17T09:59:37;5.45;;;1.30;;
44189;SDS011;29856;52.144;5.430;2022-09-17T10:02:03;4.15;;;1.13;;
44189;SDS011;29856;52.144;5.430;2022-09-17T10:04:28;6.70;;;0.98;;
44189;SDS011;29856;52.144;5.430;2022-09-17T10:06:59;5.15;;;1.13;;
44189;SDS011;29856;52.144;5.430;2022-09-17T10:09:33;7.40;;;1.30;;
44189;SDS011;29856;52.144;5.430;2022-09-17T10:14:35;3.78;;;1.02;;
44189;SDS011;29856;52.144;5.430;2022-09-17T10:19:41;7.55;;;0.90;;
44189;SDS011;29856;52.144;5.430;2022-09-17T10:22:29;5.25;;;0.90;;
44189;SDS011;29856;52.144;5.430;2022-09-17T10:24:58;4.25;;;1.10;;
44189;SDS011;29856;52.144;5.430;2022-09-17T10:27:24;5.10;;;1.08;;
44189;SDS011;29856;52.144;5.430;2022-09-17T10:30:03;3.05;;;0.70;;
44189;SDS011;29856;52.144;5.430;2022-09-17T10:32:39;4.60;;;1.00;;
44189;SDS011;29856;52.144;5.430;2022-09-17T10:37:41;6.13;;;1.03;;
44189;SDS011;29856;52.144;5.430;2022-09-17T10:42:47;12.60;;;2.15;;
44189;SDS011;29856;52.144;5.430;2022-09-17T10:45:23;6.90;;;1.70;;
44189;SDS011;29856;52.144;5.430;2022-09-17T10:47:50;8.60;;;1.30;;
44189;SDS011;29856;52.144;5.430;2022-09-17T10:50:17;9.73;;;1.77;;
44189;SDS011;29856;52.144;5.430;2022-09-17T10:52:46;8.50;;;1.77;;
44189;SDS011;29856;52.144;5.430;2022-09-17T10:55:32;8.18;;;1.67;;
44189;SDS011;29856;52.144;5.430;2022-09-17T11:11:54;15.63;;;2.00;;
44189;SDS011;29856;52.144;5.430;2022-09-17T11:20:11;11.48;;;1.58;;
44189;SDS011;29856;52.144;5.430;2022-09-17T11:25:57;7.18;;;2.08;;
44189;SDS011;29856;52.144;5.430;2022-09-17T11:34:08;11.50;;;1.88;;
44189;SDS011;29856;52.144;5.430;2022-09-17T11:36:53;7.20;;;2.08;;
44189;SDS011;29856;52.144;5.430;2022-09-17T11:39:21;7.43;;;1.20;;
44189;SDS011;29856;52.144;5.430;2022-09-17T11:42:02;10.07;;;1.88;;
44189;SDS011;29856;52.144;5.430;2022-09-17T11:44:44;9.73;;;2.40;;
44189;SDS011;29856;52.144;5.430;2022-09-17T11:47:36;9.95;;;1.50;;
44189;SDS011;29856;52.144;5.430;2022-09-17T11:50:18;5.38;;;1.52;;
44189;SDS011;29856;52.144;5.430;2022-09-17T11:55:59;7.88;;;1.67;;
44189;SDS011;29856;52.144;5.430;2022-09-17T11:58:37;24.70;;;3.47;;
44189;SDS011;29856;52.144;5.430;2022-09-17T12:01:11;10.52;;;1.73;;
44189;SDS011;29856;52.144;5.430;2022-09-17T12:03:52;7.45;;;1.67;;
44189;SDS011;29856;52.144;5.430;2022-09-17T12:06:37;10.70;;;1.58;;
44189;SDS011;29856;52.144;5.430;2022-09-17T12:09:13;11.93;;;2.00;;
44189;SDS011;29856;52.144;5.430;2022-09-17T12:11:51;9.27;;;1.85;;
44189;SDS011;29856;52.144;5.430;2022-09-17T12:14:25;11.05;;;1.67;;
44189;SDS011;29856;52.144;5.430;2022-09-17T12:16:59;12.10;;;2.17;;
44189;SDS011;29856;52.144;5.430;2022-09-17T12:19:34;7.95;;;2.42;;
44189;SDS011;29856;52.144;5.430;2022-09-17T12:22:10;7.50;;;1.30;;
44189;SDS011;29856;52.144;5.430;2022-09-17T12:24:42;8.15;;;1.55;;
44189;SDS011;29856;52.144;5.430;2022-09-17T12:38:46;6.45;;;1.95;;
44189;SDS011;29856;52.144;5.430;2022-09-17T12:50:07;10.40;;;1.80;;
44189;SDS011;29856;52.144;5.430;2022-09-17T12:55:29;9.40;;;1.90;;
44189;SDS011;29856;52.144;5.430;2022-09-17T12:58:25;11.30;;;2.63;;
44189;SDS011;29856;52.144;5.430;2022-09-17T13:01:02;5.47;;;1.33;;
44189;SDS011;29856;52.144;5.430;2022-09-17T13:03:33;8.80;;;2.13;;
44189;SDS011;29856;52.144;5.430;2022-09-17T13:11:28;13.10;;;1.90;;
44189;SDS011;29856;52.144;5.430;2022-09-17T13:16:55;9.15;;;1.73;;
44189;SDS011;29856;52.144;5.430;2022-09-17T13:19:38;12.15;;;2.20;;
44189;SDS011;29856;52.144;5.430;2022-09-17T13:22:16;10.73;;;2.03;;
44189;SDS011;29856;52.144;5.430;2022-09-17T13:24:44;13.10;;;2.13;;
44189;SDS011;29856;52.144;5.430;2022-09-17T13:27:18;13.30;;;2.65;;
44189;SDS011;29856;52.144;5.430;2022-09-17T13:37:42;11.32;;;1.83;;
44189;SDS011;29856;52.144;5.430;2022-09-17T13:42:51;5.07;;;1.70;;
44189;SDS011;29856;52.144;5.430;2022-09-17T13:45:19;5.90;;;1.05;;
44189;SDS011;29856;52.144;5.430;2022-09-17T13:47:50;11.15;;;1.08;;
44189;SDS011;29856;52.144;5.430;2022-09-17T13:50:31;5.43;;;1.20;;
44189;SDS011;29856;52.144;5.430;2022-09-17T13:53:15;4.85;;;1.27;;
44189;SDS011;29856;52.144;5.430;2022-09-17T13:55:47;5.85;;;1.00;;
44189;SDS011;29856;52.144;5.430;2022-09-17T14:00:55;4.75;;;1.15;;
44189;SDS011;29856;52.144;5.430;2022-09-17T14:18:55;7.75;;;1.77;;
44189;SDS011;29856;52.144;5.430;2022-09-17T14:21:26;10.75;;;1.48;;
44189;SDS011;29856;52.144;5.430;2022-09-17T14:23:55;8.38;;;1.70;;
44189;SDS011;29856;52.144;5.430;2022-09-17T14:29:15;6.55;;;1.30;;
44189;SDS011;29856;52.144;5.430;2022-09-17T14:31:57;8.95;;;1.55;;
44189;SDS011;29856;52.144;5.430;2022-09-17T14:34:23;9.38;;;1.42;;
44189;SDS011;29856;52.144;5.430;2022-09-17T14:36:50;12.43;;;2.33;;
44189;SDS011;29856;52.144;5.430;2022-09-17T14:39:21;7.63;;;1.20;;
44189;SDS011;29856;52.144;5.430;2022-09-17T14:41:53;7.68;;;1.65;;
44189;SDS011;29856;52.144;5.430;2022-09-17T14:44:20;9.32;;;1.67;;
44189;SDS011;29856;52.144;5.430;2022-09-17T14:46:55;9.25;;;1.90;;
44189;SDS011;29856;52.144;5.430;2022-09-17T14:49:32;16.60;;;2.20;;
44189;SDS011;29856;52.144;5.430;2022-09-17T14:51:58;10.43;;;1.85;;
44189;SDS011;29856;52.144;5.430;2022-09-17T14:54:25;13.65;;;3.17;;
44189;SDS011;29856;52.144;5.430;2022-09-17T14:59:41;18.92;;;3.15;;
44189;SDS011;29856;52.144;5.430;2022-09-17T15:05:01;16.45;;;2.30;;
44189;SDS011;29856;52.144;5.430;2022-09-17T15:07:45;8.18;;;1.67;;
44189;SDS011;29856;52.144;5.430;2022-09-17T15:10:15;11.70;;;1.77;;
44189;SDS011;29856;52.144;5.430;2022-09-17T15:12:43;7.30;;;1.40;;
44189;SDS011;29856;52.144;5.430;2022-09-17T15:15:20;5.80;;;1.25;;
44189;SDS011;29856;52.144;5.430;2022-09-17T15:17:47;14.23;;;2.40;;
44189;SDS011;29856;52.144;5.430;2022-09-17T15:20:16;14.00;;;2.72;;
44189;SDS011;29856;52.144;5.430;2022-09-17T15:23:06;6.70;;;2.13;;
44189;SDS011;29856;52.144;5.430;2022-09-17T15:25:42;10.00;;;1.95;;
44189;SDS011;29856;52.144;5.430;2022-09-17T15:28:27;10.25;;;1.88;;
44189;SDS011;29856;52.144;5.430;2022-09-17T15:31:01;12.55;;;2.45;;
44189;SDS011;29856;52.144;5.430;2022-09-17T15:33:29;6.35;;;1.88;;
44189;SDS011;29856;52.144;5.430;2022-09-17T15:36:00;6.25;;;1.50;;
44189;SDS011;29856;52.144;5.430;2022-09-17T15:38:44;5.38;;;1.20;;
44189;SDS011;29856;52.144;5.430;2022-09-17T15:43:48;4.75;;;0.88;;
44189;SDS011;29856;52.144;5.430;2022-09-17T15:49:01;5.95;;;1.17;;
44189;SDS011;29856;52.144;5.430;2022-09-17T15:51:29;5.85;;;1.10;;
44189;SDS011;29856;52.144;5.430;2022-09-17T15:54:00;5.88;;;1.10;;
44189;SDS011;29856;52.144;5.430;2022-09-17T15:56:31;4.53;;;1.20;;
44189;SDS011;29856;52.144;5.430;2022-09-17T15:59:15;6.75;;;1.50;;
44189;SDS011;29856;52.144;5.430;2022-09-17T16:01:53;14.65;;;1.83;;
44189;SDS011;29856;52.144;5.430;2022-09-17T16:04:28;14.65;;;1.88;;
44189;SDS011;29856;52.144;5.430;2022-09-17T16:12:15;9.23;;;2.10;;
44189;SDS011;29856;52.144;5.430;2022-09-17T16:14:46;8.77;;;1.85;;
44189;SDS011;29856;52.144;5.430;2022-09-17T16:17:24;12.77;;;2.15;;
44189;SDS011;29856;52.144;5.430;2022-09-17T16:19:51;16.05;;;2.22;;
44189;SDS011;29856;52.144;5.430;2022-09-17T16:22:16;9.88;;;2.42;;
44189;SDS011;29856;52.144;5.430;2022-09-17T16:24:42;14.43;;;2.15;;
44189;SDS011;29856;52.144;5.430;2022-09-17T16:27:09;13.73;;;2.80;;
44189;SDS011;29856;52.144;5.430;2022-09-17T16:29:40;14.13;;;2.72;;
44189;SDS011;29856;52.144;5.430;2022-09-17T16:32:07;11.50;;;2.50;;
44189;SDS011;29856;52.144;5.430;2022-09-17T16:34:34;12.05;;;2.40;;
44189;SDS011;29856;52.144;5.430;2022-09-17T16:36:59;14.75;;;2.10;;
44189;SDS011;29856;52.144;5.430;2022-09-17T16:39:25;14.20;;;3.10;;
44189;SDS011;29856;52.144;5.430;2022-09-17T16:41:50;12.02;;;2.90;;
44189;SDS011;29856;52.144;5.430;2022-09-17T16:44:15;16.85;;;3.08;;
44189;SDS011;29856;52.144;5.430;2022-09-17T16:46:41;12.70;;;2.42;;
44189;SDS011;29856;52.144;5.430;2022-09-17T16:49:06;12.63;;;2.30;;
44189;SDS011;29856;52.144;5.430;2022-09-17T16:51:32;7.40;;;1.58;;
44189;SDS011;29856;52.144;5.430;2022-09-17T16:53:57;17.80;;;1.95;;
44189;SDS011;29856;52.144;5.430;2022-09-17T16:56:22;10.52;;;2.05;;
44189;SDS011;29856;52.144;5.430;2022-09-17T16:58:48;11.25;;;2.28;;
44189;SDS011;29856;52.144;5.430;2022-09-17T17:01:18;8.93;;;1.60;;
44189;SDS011;29856;52.144;5.430;2022-09-17T17:03:43;8.80;;;1.75;;
44189;SDS011;29856;52.144;5.430;2022-09-17T17:06:15;8.85;;;1.52;;
44189;SDS011;29856;52.144;5.430;2022-09-17T17:08:45;8.63;;;1.35;;
44189;SDS011;29856;52.144;5.430;2022-09-17T17:11:11;10.88;;;2.75;;
44189;SDS011;29856;52.144;5.430;2022-09-17T17:13:37;6.60;;;2.15;;
44189;SDS011;29856;52.144;5.430;2022-09-17T17:16:09;4.45;;;1.45;;
44189;SDS011;29856;52.144;5.430;2022-09-17T17:18:37;8.27;;;1.48;;
44189;SDS011;29856;52.144;5.430;2022-09-17T17:21:03;3.95;;;1.10;;
44189;SDS011;29856;52.144;5.430;2022-09-17T17:23:29;6.63;;;1.63;;
44189;SDS011;29856;52.144;5.430;2022-09-17T17:25:55;5.13;;;1.50;;
44189;SDS011;29856;52.144;5.430;2022-09-17T17:28:20;8.55;;;1.75;;
44189;SDS011;29856;52.144;5.430;2022-09-17T17:30:46;5.00;;;1.20;;
44189;SDS011;29856;52.144;5.430;2022-09-17T17:33:12;8.43;;;2.30;;
44189;SDS011;29856;52.144;5.430;2022-09-17T17:35:37;8.40;;;2.20;;
44189;SDS011;29856;52.144;5.430;2022-09-17T17:38:03;6.80;;;1.25;;
44189;SDS011;29856;52.144;5.430;2022-09-17T17:40:28;7.85;;;1.70;;
44189;SDS011;29856;52.144;5.430;2022-09-17T17:42:54;6.13;;;1.40;;
44189;SDS011;29856;52.144;5.430;2022-09-17T17:45:19;5.15;;;1.20;;
44189;SDS011;29856;52.144;5.430;2022-09-17T17:47:45;7.63;;;1.40;;
44189;SDS011;29856;52.144;5.430;2022-09-17T17:50:10;5.93;;;1.35;;
44189;SDS011;29856;52.144;5.430;2022-09-17T17:52:36;5.68;;;1.45;;
44189;SDS011;29856;52.144;5.430;2022-09-17T17:55:01;6.07;;;1.20;;
44189;SDS011;29856;52.144;5.430;2022-09-17T17:57:27;2.95;;;1.40;;
44189;SDS011;29856;52.144;5.430;2022-09-17T17:59:52;6.35;;;1.50;;
44189;SDS011;29856;52.144;5.430;2022-09-17T18:02:18;4.13;;;1.30;;
44189;SDS011;29856;52.144;5.430;2022-09-17T18:04:43;7.00;;;1.92;;
44189;SDS011;29856;52.144;5.430;2022-09-17T18:07:09;4.68;;;1.40;;
44189;SDS011;29856;52.144;5.430;2022-09-17T18:09:34;4.90;;;1.50;;
44189;SDS011;29856;52.144;5.430;2022-09-17T18:12:00;4.25;;;1.30;;
44189;SDS011;29856;52.144;5.430;2022-09-17T18:14:25;7.05;;;1.48;;